This is the latest recevied weather packets stored in our database for station/object KD5UIG. If no packets are shown the sender has not sent any weather packets the latest 10 day(s).
| Time | Temp. | Humidity | Pressure | Rain* | Wind** | Luminosity | Snow |
|---|---|---|---|---|---|---|---|
| 1777865155 | 20° C | 53% | 1015.2 hPa | 0 mm | - | 0 W/m² | - |
| 1777864555 | 20° C | 51% | 1015.3 hPa | 0 mm | - | 0 W/m² | - |
| 1777863355 | 20.56° C | 49% | 1015.3 hPa | 0 mm | - | 0 W/m² | - |
| 1777861555 | 21.11° C | 48% | 1015.2 hPa | 0 mm | - | 0 W/m² | - |
| 1777857058 | 23.33° C | 44% | 1015 hPa | 0 mm | - | 0 W/m² | - |
| 1777855255 | 24.44° C | 40% | 1014.6 hPa | 0 mm | - | 25 W/m² | - |
| 1777854955 | 25° C | 39% | 1014.7 hPa | 0 mm | - | 21 W/m² | - |
| 1777854054 | 26.11° C | 37% | 1014.9 hPa | 0 mm | - | 53 W/m² | - |
| 1777853454 | 26.67° C | 37% | 1014.9 hPa | 0 mm | - | 95 W/m² | - |
| 1777851956 | 27.22° C | 35% | 1015 hPa | 0 mm | - | 185 W/m² | - |
| 1777851355 | 27.22° C | 34% | 1015.3 hPa | 0 mm | - | 216 W/m² | - |
| 1777850158 | 27.22° C | 37% | 1015.4 hPa | 0 mm | - | 279 W/m² | - |
| 1777848655 | 27.78° C | 33% | 1015.5 hPa | 0 mm | - | 271 W/m² | - |
| 1777848358 | 28.33° C | 33% | 1015.5 hPa | 0 mm | - | 332 W/m² | - |
| 1777842355 | 29.44° C | 34% | 1016.6 hPa | 0 mm | - | 703 W/m² | - |
| 1777841458 | 29.44° C | 34% | 1016.8 hPa | 0 mm | - | 766 W/m² | - |
| 1777839955 | 28.89° C | 34% | 1017.4 hPa | 0 mm | - | 782 W/m² | - |
| 1777839655 | 29.44° C | 36% | 1017.5 hPa | 0 mm | - | 791 W/m² | - |
| 1777839054 | 29.44° C | 33% | 1017.7 hPa | 0 mm | - | 809 W/m² | - |
| 1777836356 | 29.44° C | 38% | 1018.3 hPa | 0 mm | - | 891 W/m² | - |
| 1777835769 | 29.44° C | 42% | 1018.4 hPa | 0 mm | - | 912 W/m² | - |
| 1777835455 | 29.44° C | 38% | 1018.5 hPa | 0 mm | - | 933 W/m² | - |
| 1777834258 | 28.89° C | 37% | 1018.7 hPa | 0 mm | - | 898 W/m² | - |
| 1777833069 | 29.44° C | 39% | 1018.9 hPa | 0 mm | - | 904 W/m² | - |
| 1777832168 | 28.33° C | 38% | 1019.3 hPa | 0 mm | - | 898 W/m² | - |
* Rain latest hour (hover to see other rain measurements)
** Current wind speed in m/s (hover to see current wind gust speed)